sensor_id;sensor_type;location;lat;lon;timestamp;temperature;humidity
6118;DHT22;3089;48.202;11.510;2024-01-30T00:00:39;2.80;99.90
6118;DHT22;3089;48.202;11.510;2024-01-30T00:03:07;2.80;99.90
6118;DHT22;3089;48.202;11.510;2024-01-30T00:05:35;2.80;99.90
6118;DHT22;3089;48.202;11.510;2024-01-30T00:08:04;2.70;99.90
6118;DHT22;3089;48.202;11.510;2024-01-30T00:10:32;2.70;99.90
6118;DHT22;3089;48.202;11.510;2024-01-30T00:13:00;2.70;99.90
6118;DHT22;3089;48.202;11.510;2024-01-30T00:15:28;2.70;99.90
6118;DHT22;3089;48.202;11.510;2024-01-30T00:17:58;2.60;99.90
6118;DHT22;3089;48.202;11.510;2024-01-30T00:20:26;2.60;99.90
6118;DHT22;3089;48.202;11.510;2024-01-30T00:22:54;2.60;99.90
6118;DHT22;3089;48.202;11.510;2024-01-30T00:25:22;2.60;99.90
6118;DHT22;3089;48.202;11.510;2024-01-30T00:27:50;2.50;99.90
6118;DHT22;3089;48.202;11.510;2024-01-30T00:30:18;2.50;99.90
6118;DHT22;3089;48.202;11.510;2024-01-30T00:32:46;2.50;99.90
6118;DHT22;3089;48.202;11.510;2024-01-30T00:35:15;2.50;99.90
6118;DHT22;3089;48.202;11.510;2024-01-30T00:37:46;2.50;99.90
6118;DHT22;3089;48.202;11.510;2024-01-30T00:40:14;2.40;99.90
6118;DHT22;3089;48.202;11.510;2024-01-30T00:42:44;2.40;99.90
6118;DHT22;3089;48.202;11.510;2024-01-30T00:45:13;2.40;99.90
6118;DHT22;3089;48.202;11.510;2024-01-30T00:47:41;2.40;99.90
6118;DHT22;3089;48.202;11.510;2024-01-30T00:50:09;2.40;99.90
6118;DHT22;3089;48.202;11.510;2024-01-30T00:52:39;2.30;99.90
6118;DHT22;3089;48.202;11.510;2024-01-30T00:55:08;2.30;99.90
6118;DHT22;3089;48.202;11.510;2024-01-30T00:57:36;2.30;99.90
6118;DHT22;3089;48.202;11.510;2024-01-30T01:00:05;2.30;99.90
6118;DHT22;3089;48.202;11.510;2024-01-30T01:02:35;2.30;99.90
6118;DHT22;3089;48.202;11.510;2024-01-30T01:05:03;2.30;99.90
6118;DHT22;3089;48.202;11.510;2024-01-30T01:07:32;2.20;99.90
6118;DHT22;3089;48.202;11.510;2024-01-30T01:10:01;2.20;99.90
6118;DHT22;3089;48.202;11.510;2024-01-30T01:12:30;2.20;99.90
6118;DHT22;3089;48.202;11.510;2024-01-30T01:14:58;2.20;99.90
6118;DHT22;3089;48.202;11.510;2024-01-30T01:17:26;2.20;99.90
6118;DHT22;3089;48.202;11.510;2024-01-30T01:19:54;2.10;99.90
6118;DHT22;3089;48.202;11.510;2024-01-30T01:22:22;2.10;99.90
6118;DHT22;3089;48.202;11.510;2024-01-30T01:24:50;2.10;99.90
6118;DHT22;3089;48.202;11.510;2024-01-30T01:27:19;2.10;99.90
6118;DHT22;3089;48.202;11.510;2024-01-30T01:29:47;2.00;99.90
6118;DHT22;3089;48.202;11.510;2024-01-30T01:32:15;2.00;99.90
6118;DHT22;3089;48.202;11.510;2024-01-30T01:34:44;2.00;99.90
6118;DHT22;3089;48.202;11.510;2024-01-30T01:37:12;2.00;99.90
6118;DHT22;3089;48.202;11.510;2024-01-30T01:39:40;2.00;99.90
6118;DHT22;3089;48.202;11.510;2024-01-30T01:42:08;1.90;99.90
6118;DHT22;3089;48.202;11.510;2024-01-30T01:44:37;1.90;99.90
6118;DHT22;3089;48.202;11.510;2024-01-30T01:47:05;1.90;99.90
6118;DHT22;3089;48.202;11.510;2024-01-30T01:49:33;1.90;99.90
6118;DHT22;3089;48.202;11.510;2024-01-30T01:52:02;1.90;99.90
6118;DHT22;3089;48.202;11.510;2024-01-30T01:54:30;1.90;99.90
6118;DHT22;3089;48.202;11.510;2024-01-30T01:56:58;1.80;99.90
6118;DHT22;3089;48.202;11.510;2024-01-30T01:59:27;1.80;99.90
6118;DHT22;3089;48.202;11.510;2024-01-30T02:01:57;1.80;99.90
6118;DHT22;3089;48.202;11.510;2024-01-30T02:04:25;1.80;99.90
6118;DHT22;3089;48.202;11.510;2024-01-30T02:06:53;1.80;99.90
6118;DHT22;3089;48.202;11.510;2024-01-30T02:09:21;1.70;99.90
6118;DHT22;3089;48.202;11.510;2024-01-30T02:11:49;1.70;99.90
6118;DHT22;3089;48.202;11.510;2024-01-30T02:14:17;1.70;99.90
6118;DHT22;3089;48.202;11.510;2024-01-30T02:16:45;1.70;99.90
6118;DHT22;3089;48.202;11.510;2024-01-30T02:19:14;1.70;99.90
6118;DHT22;3089;48.202;11.510;2024-01-30T02:21:44;1.70;99.90
6118;DHT22;3089;48.202;11.510;2024-01-30T02:24:12;1.60;99.90
6118;DHT22;3089;48.202;11.510;2024-01-30T02:26:40;1.60;99.90
6118;DHT22;3089;48.202;11.510;2024-01-30T02:29:08;1.60;99.90
6118;DHT22;3089;48.202;11.510;2024-01-30T02:31:36;1.60;99.90
6118;DHT22;3089;48.202;11.510;2024-01-30T02:34:04;1.60;99.90
6118;DHT22;3089;48.202;11.510;2024-01-30T02:36:32;1.60;99.90
6118;DHT22;3089;48.202;11.510;2024-01-30T02:39:02;1.60;99.90
6118;DHT22;3089;48.202;11.510;2024-01-30T02:41:30;1.50;99.90
6118;DHT22;3089;48.202;11.510;2024-01-30T02:43:58;1.60;99.90
6118;DHT22;3089;48.202;11.510;2024-01-30T02:46:26;1.50;99.90
6118;DHT22;3089;48.202;11.510;2024-01-30T02:48:54;1.50;99.90
6118;DHT22;3089;48.202;11.510;2024-01-30T02:51:22;1.50;99.90
6118;DHT22;3089;48.202;11.510;2024-01-30T02:53:50;1.50;99.90
6118;DHT22;3089;48.202;11.510;2024-01-30T02:56:19;1.40;99.90
6118;DHT22;3089;48.202;11.510;2024-01-30T02:58:47;1.40;99.90
6118;DHT22;3089;48.202;11.510;2024-01-30T03:01:15;1.40;99.90
6118;DHT22;3089;48.202;11.510;2024-01-30T03:03:43;1.40;99.90
6118;DHT22;3089;48.202;11.510;2024-01-30T03:06:11;1.40;99.90
6118;DHT22;3089;48.202;11.510;2024-01-30T03:08:41;1.40;99.90
6118;DHT22;3089;48.202;11.510;2024-01-30T03:11:09;1.40;99.90
6118;DHT22;3089;48.202;11.510;2024-01-30T03:13:39;1.30;99.90
6118;DHT22;3089;48.202;11.510;2024-01-30T03:16:08;1.40;99.90
6118;DHT22;3089;48.202;11.510;2024-01-30T03:18:36;1.30;99.90
6118;DHT22;3089;48.202;11.510;2024-01-30T03:21:04;1.30;99.90
6118;DHT22;3089;48.202;11.510;2024-01-30T03:23:32;1.30;99.90
6118;DHT22;3089;48.202;11.510;2024-01-30T03:26:00;1.30;99.90
6118;DHT22;3089;48.202;11.510;2024-01-30T03:28:30;1.30;99.90
6118;DHT22;3089;48.202;11.510;2024-01-30T03:30:59;1.20;99.90
6118;DHT22;3089;48.202;11.510;2024-01-30T03:33:27;1.20;99.90
6118;DHT22;3089;48.202;11.510;2024-01-30T03:35:55;1.20;99.90
6118;DHT22;3089;48.202;11.510;2024-01-30T03:38:23;1.20;99.90
6118;DHT22;3089;48.202;11.510;2024-01-30T03:40:51;1.20;99.90
6118;DHT22;3089;48.202;11.510;2024-01-30T03:43:19;1.10;99.90
6118;DHT22;3089;48.202;11.510;2024-01-30T03:45:47;1.10;99.90
6118;DHT22;3089;48.202;11.510;2024-01-30T03:48:18;1.10;99.90
6118;DHT22;3089;48.202;11.510;2024-01-30T03:50:46;1.10;99.90
6118;DHT22;3089;48.202;11.510;2024-01-30T03:53:14;1.10;99.90
6118;DHT22;3089;48.202;11.510;2024-01-30T03:55:42;1.10;99.90
6118;DHT22;3089;48.202;11.510;2024-01-30T03:58:10;1.10;99.90
6118;DHT22;3089;48.202;11.510;2024-01-30T04:00:38;1.10;99.90
6118;DHT22;3089;48.202;11.510;2024-01-30T04:03:07;1.10;99.90
6118;DHT22;3089;48.202;11.510;2024-01-30T04:05:37;1.10;99.90
6118;DHT22;3089;48.202;11.510;2024-01-30T04:08:05;1.10;99.90
6118;DHT22;3089;48.202;11.510;2024-01-30T04:10:33;1.00;99.90
6118;DHT22;3089;48.202;11.510;2024-01-30T04:13:01;1.00;99.90
6118;DHT22;3089;48.202;11.510;2024-01-30T04:15:29;1.00;99.90
6118;DHT22;3089;48.202;11.510;2024-01-30T04:17:57;0.90;99.90
6118;DHT22;3089;48.202;11.510;2024-01-30T04:20:25;0.90;99.90
6118;DHT22;3089;48.202;11.510;2024-01-30T04:22:55;0.90;99.90
6118;DHT22;3089;48.202;11.510;2024-01-30T04:25:23;0.90;99.90
6118;DHT22;3089;48.202;11.510;2024-01-30T04:27:51;0.90;99.90
6118;DHT22;3089;48.202;11.510;2024-01-30T04:30:19;0.90;99.90
6118;DHT22;3089;48.202;11.510;2024-01-30T04:32:47;0.90;99.90
6118;DHT22;3089;48.202;11.510;2024-01-30T04:35:15;0.90;99.90
6118;DHT22;3089;48.202;11.510;2024-01-30T04:37:43;0.80;99.90
6118;DHT22;3089;48.202;11.510;2024-01-30T04:40:13;0.80;99.90
6118;DHT22;3089;48.202;11.510;2024-01-30T04:42:41;0.80;99.90
6118;DHT22;3089;48.202;11.510;2024-01-30T04:45:09;0.80;99.90
6118;DHT22;3089;48.202;11.510;2024-01-30T04:47:37;0.80;99.90
6118;DHT22;3089;48.202;11.510;2024-01-30T04:50:07;0.80;99.90
6118;DHT22;3089;48.202;11.510;2024-01-30T04:52:35;0.80;99.90
6118;DHT22;3089;48.202;11.510;2024-01-30T04:55:04;0.80;99.90
6118;DHT22;3089;48.202;11.510;2024-01-30T04:57:33;0.80;99.90
6118;DHT22;3089;48.202;11.510;2024-01-30T05:00:01;0.80;99.90
6118;DHT22;3089;48.202;11.510;2024-01-30T05:02:30;0.70;99.90
6118;DHT22;3089;48.202;11.510;2024-01-30T05:04:57;0.70;99.90
6118;DHT22;3089;48.202;11.510;2024-01-30T05:07:26;0.70;99.90
6118;DHT22;3089;48.202;11.510;2024-01-30T05:09:54;0.60;99.90
6118;DHT22;3089;48.202;11.510;2024-01-30T05:12:25;0.60;99.90
6118;DHT22;3089;48.202;11.510;2024-01-30T05:14:55;0.60;99.90
6118;DHT22;3089;48.202;11.510;2024-01-30T05:17:23;0.70;99.90
6118;DHT22;3089;48.202;11.510;2024-01-30T05:19:51;0.70;99.90
6118;DHT22;3089;48.202;11.510;2024-01-30T05:22:19;0.60;99.90
6118;DHT22;3089;48.202;11.510;2024-01-30T05:24:47;0.60;99.90
6118;DHT22;3089;48.202;11.510;2024-01-30T05:27:15;0.60;99.90
6118;DHT22;3089;48.202;11.510;2024-01-30T05:29:43;0.60;99.90
6118;DHT22;3089;48.202;11.510;2024-01-30T05:32:12;0.60;99.90
6118;DHT22;3089;48.202;11.510;2024-01-30T05:34:40;0.60;99.90
6118;DHT22;3089;48.202;11.510;2024-01-30T05:37:08;0.60;99.90
6118;DHT22;3089;48.202;11.510;2024-01-30T05:39:40;0.60;99.90
6118;DHT22;3089;48.202;11.510;2024-01-30T05:42:08;0.60;99.90
6118;DHT22;3089;48.202;11.510;2024-01-30T05:44:36;0.60;99.90
6118;DHT22;3089;48.202;11.510;2024-01-30T05:47:04;0.50;99.90
6118;DHT22;3089;48.202;11.510;2024-01-30T05:49:34;0.60;99.90
6118;DHT22;3089;48.202;11.510;2024-01-30T05:52:04;0.60;99.90
6118;DHT22;3089;48.202;11.510;2024-01-30T05:54:32;0.60;99.90
6118;DHT22;3089;48.202;11.510;2024-01-30T05:57:00;0.50;99.90
6118;DHT22;3089;48.202;11.510;2024-01-30T05:59:28;0.50;99.90
6118;DHT22;3089;48.202;11.510;2024-01-30T06:01:56;0.50;99.90
6118;DHT22;3089;48.202;11.510;2024-01-30T06:04:24;0.40;99.90
6118;DHT22;3089;48.202;11.510;2024-01-30T06:06:54;0.40;99.90
6118;DHT22;3089;48.202;11.510;2024-01-30T06:09:22;0.40;99.90
6118;DHT22;3089;48.202;11.510;2024-01-30T06:11:50;0.40;99.90
6118;DHT22;3089;48.202;11.510;2024-01-30T06:14:18;0.40;99.90
6118;DHT22;3089;48.202;11.510;2024-01-30T06:16:47;0.40;99.90
6118;DHT22;3089;48.202;11.510;2024-01-30T06:19:15;0.40;99.90
6118;DHT22;3089;48.202;11.510;2024-01-30T06:21:43;0.30;99.90
6118;DHT22;3089;48.202;11.510;2024-01-30T06:24:13;0.30;99.90
6118;DHT22;3089;48.202;11.510;2024-01-30T06:26:41;0.30;99.90
6118;DHT22;3089;48.202;11.510;2024-01-30T06:29:09;0.30;99.90
6118;DHT22;3089;48.202;11.510;2024-01-30T06:31:40;0.30;99.90
6118;DHT22;3089;48.202;11.510;2024-01-30T06:34:09;0.30;99.90
6118;DHT22;3089;48.202;11.510;2024-01-30T06:36:38;0.30;99.90
6118;DHT22;3089;48.202;11.510;2024-01-30T06:39:06;0.30;99.90
6118;DHT22;3089;48.202;11.510;2024-01-30T06:41:36;0.30;99.90
6118;DHT22;3089;48.202;11.510;2024-01-30T06:44:04;0.30;99.90
6118;DHT22;3089;48.202;11.510;2024-01-30T06:46:33;0.30;99.90
6118;DHT22;3089;48.202;11.510;2024-01-30T06:49:01;0.30;99.90
6118;DHT22;3089;48.202;11.510;2024-01-30T06:51:29;0.30;99.90
6118;DHT22;3089;48.202;11.510;2024-01-30T06:53:57;0.30;99.90
6118;DHT22;3089;48.202;11.510;2024-01-30T06:56:25;0.20;99.90
6118;DHT22;3089;48.202;11.510;2024-01-30T06:58:54;0.20;99.90
6118;DHT22;3089;48.202;11.510;2024-01-30T07:01:27;-0.20;99.90
6118;DHT22;3089;48.202;11.510;2024-01-30T07:03:56;-0.20;99.90
6118;DHT22;3089;48.202;11.510;2024-01-30T07:06:25;-0.20;99.90
6118;DHT22;3089;48.202;11.510;2024-01-30T07:08:53;-0.10;99.90
6118;DHT22;3089;48.202;11.510;2024-01-30T07:11:21;0.00;99.90
6118;DHT22;3089;48.202;11.510;2024-01-30T07:13:50;0.10;99.90
6118;DHT22;3089;48.202;11.510;2024-01-30T07:16:20;0.10;99.90
6118;DHT22;3089;48.202;11.510;2024-01-30T07:18:49;0.10;99.90
6118;DHT22;3089;48.202;11.510;2024-01-30T07:21:17;0.10;99.90
6118;DHT22;3089;48.202;11.510;2024-01-30T07:23:45;0.20;99.90
6118;DHT22;3089;48.202;11.510;2024-01-30T07:26:13;0.10;99.90
6118;DHT22;3089;48.202;11.510;2024-01-30T07:28:41;0.10;99.90
6118;DHT22;3089;48.202;11.510;2024-01-30T07:31:10;0.10;99.90
6118;DHT22;3089;48.202;11.510;2024-01-30T07:33:40;0.10;99.90
6118;DHT22;3089;48.202;11.510;2024-01-30T07:36:08;0.10;99.90
6118;DHT22;3089;48.202;11.510;2024-01-30T07:38:37;0.10;99.90
6118;DHT22;3089;48.202;11.510;2024-01-30T07:41:05;0.20;99.90
6118;DHT22;3089;48.202;11.510;2024-01-30T07:43:33;0.20;99.90
6118;DHT22;3089;48.202;11.510;2024-01-30T07:46:01;0.20;99.90
6118;DHT22;3089;48.202;11.510;2024-01-30T07:48:29;0.20;99.90
6118;DHT22;3089;48.202;11.510;2024-01-30T07:50:59;0.20;99.90
6118;DHT22;3089;48.202;11.510;2024-01-30T07:53:27;0.20;99.90
6118;DHT22;3089;48.202;11.510;2024-01-30T07:55:55;0.30;99.90
6118;DHT22;3089;48.202;11.510;2024-01-30T07:58:23;0.30;99.90
6118;DHT22;3089;48.202;11.510;2024-01-30T08:00:53;0.40;99.90
6118;DHT22;3089;48.202;11.510;2024-01-30T08:03:23;0.50;99.90
6118;DHT22;3089;48.202;11.510;2024-01-30T08:05:51;0.40;99.90
6118;DHT22;3089;48.202;11.510;2024-01-30T08:08:21;0.40;99.90
6118;DHT22;3089;48.202;11.510;2024-01-30T08:10:49;0.60;99.90
6118;DHT22;3089;48.202;11.510;2024-01-30T08:13:17;0.60;99.90
6118;DHT22;3089;48.202;11.510;2024-01-30T08:15:45;1.70;99.90
6118;DHT22;3089;48.202;11.510;2024-01-30T08:18:13;3.90;99.90
6118;DHT22;3089;48.202;11.510;2024-01-30T08:20:41;4.30;99.90
6118;DHT22;3089;48.202;11.510;2024-01-30T08:23:09;4.60;99.90
6118;DHT22;3089;48.202;11.510;2024-01-30T08:25:39;4.70;99.90
6118;DHT22;3089;48.202;11.510;2024-01-30T08:28:07;4.00;99.90
6118;DHT22;3089;48.202;11.510;2024-01-30T08:30:35;3.50;99.90
6118;DHT22;3089;48.202;11.510;2024-01-30T08:33:03;2.30;99.90
6118;DHT22;3089;48.202;11.510;2024-01-30T08:35:31;2.40;99.90
6118;DHT22;3089;48.202;11.510;2024-01-30T08:38:00;3.30;99.90
6118;DHT22;3089;48.202;11.510;2024-01-30T08:40:30;3.00;99.90
6118;DHT22;3089;48.202;11.510;2024-01-30T08:42:59;3.30;99.90
6118;DHT22;3089;48.202;11.510;2024-01-30T08:45:27;4.00;99.90
6118;DHT22;3089;48.202;11.510;2024-01-30T08:47:55;4.90;99.90
6118;DHT22;3089;48.202;11.510;2024-01-30T08:50:23;4.90;99.90
6118;DHT22;3089;48.202;11.510;2024-01-30T08:52:51;4.60;99.90
6118;DHT22;3089;48.202;11.510;2024-01-30T08:55:19;4.90;99.90
6118;DHT22;3089;48.202;11.510;2024-01-30T08:57:47;5.20;99.90
6118;DHT22;3089;48.202;11.510;2024-01-30T09:00:17;5.30;99.90
6118;DHT22;3089;48.202;11.510;2024-01-30T09:02:45;4.50;99.90
6118;DHT22;3089;48.202;11.510;2024-01-30T09:05:13;3.90;99.90
6118;DHT22;3089;48.202;11.510;2024-01-30T09:07:41;3.90;99.90
6118;DHT22;3089;48.202;11.510;2024-01-30T09:10:10;4.10;99.90
6118;DHT22;3089;48.202;11.510;2024-01-30T09:12:40;4.10;99.90
6118;DHT22;3089;48.202;11.510;2024-01-30T09:15:09;4.10;99.90
6118;DHT22;3089;48.202;11.510;2024-01-30T09:17:38;3.60;99.90
6118;DHT22;3089;48.202;11.510;2024-01-30T09:20:07;3.60;99.90
6118;DHT22;3089;48.202;11.510;2024-01-30T09:22:36;3.60;99.90
6118;DHT22;3089;48.202;11.510;2024-01-30T09:25:04;3.70;99.90
6118;DHT22;3089;48.202;11.510;2024-01-30T09:27:33;3.70;99.90
6118;DHT22;3089;48.202;11.510;2024-01-30T09:30:00;3.80;99.90
6118;DHT22;3089;48.202;11.510;2024-01-30T09:32:29;4.20;99.90
6118;DHT22;3089;48.202;11.510;2024-01-30T09:34:59;4.80;99.90
6118;DHT22;3089;48.202;11.510;2024-01-30T09:37:27;5.10;99.90
6118;DHT22;3089;48.202;11.510;2024-01-30T09:39:55;5.10;99.90
6118;DHT22;3089;48.202;11.510;2024-01-30T09:42:28;5.20;99.90
6118;DHT22;3089;48.202;11.510;2024-01-30T09:44:56;5.20;99.90
6118;DHT22;3089;48.202;11.510;2024-01-30T09:47:24;5.10;99.90
6118;DHT22;3089;48.202;11.510;2024-01-30T09:49:53;5.30;99.90
6118;DHT22;3089;48.202;11.510;2024-01-30T09:52:23;5.50;99.90
6118;DHT22;3089;48.202;11.510;2024-01-30T09:54:53;5.70;99.90
6118;DHT22;3089;48.202;11.510;2024-01-30T09:57:21;5.70;99.90
6118;DHT22;3089;48.202;11.510;2024-01-30T09:59:49;5.60;99.90
6118;DHT22;3089;48.202;11.510;2024-01-30T10:02:19;6.00;99.90
6118;DHT22;3089;48.202;11.510;2024-01-30T10:04:48;6.20;99.90
6118;DHT22;3089;48.202;11.510;2024-01-30T10:07:16;6.00;99.90
6118;DHT22;3089;48.202;11.510;2024-01-30T10:09:46;5.60;99.90
6118;DHT22;3089;48.202;11.510;2024-01-30T10:12:15;5.70;99.90
6118;DHT22;3089;48.202;11.510;2024-01-30T10:14:44;5.70;99.90
6118;DHT22;3089;48.202;11.510;2024-01-30T10:17:12;5.70;99.90
6118;DHT22;3089;48.202;11.510;2024-01-30T10:19:54;5.70;99.90
6118;DHT22;3089;48.202;11.510;2024-01-30T10:22:22;5.80;99.90
6118;DHT22;3089;48.202;11.510;2024-01-30T10:24:52;5.60;99.90
6118;DHT22;3089;48.202;11.510;2024-01-30T10:27:25;5.60;99.90
6118;DHT22;3089;48.202;11.510;2024-01-30T10:29:53;5.80;99.90
6118;DHT22;3089;48.202;11.510;2024-01-30T10:32:21;6.30;99.90
6118;DHT22;3089;48.202;11.510;2024-01-30T10:34:49;6.80;99.90
6118;DHT22;3089;48.202;11.510;2024-01-30T10:37:19;6.70;99.90
6118;DHT22;3089;48.202;11.510;2024-01-30T10:39:52;6.70;99.90
6118;DHT22;3089;48.202;11.510;2024-01-30T10:42:26;6.60;99.90
6118;DHT22;3089;48.202;11.510;2024-01-30T10:44:59;7.00;99.90
6118;DHT22;3089;48.202;11.510;2024-01-30T10:47:28;7.00;99.90
6118;DHT22;3089;48.202;11.510;2024-01-30T10:49:57;7.30;99.90
6118;DHT22;3089;48.202;11.510;2024-01-30T10:52:26;7.40;99.90
6118;DHT22;3089;48.202;11.510;2024-01-30T10:54:58;7.40;99.90
6118;DHT22;3089;48.202;11.510;2024-01-30T10:57:27;7.60;99.90
6118;DHT22;3089;48.202;11.510;2024-01-30T10:59:57;8.10;99.90
6118;DHT22;3089;48.202;11.510;2024-01-30T11:02:26;8.20;99.90
6118;DHT22;3089;48.202;11.510;2024-01-30T11:04:56;7.80;99.90
6118;DHT22;3089;48.202;11.510;2024-01-30T11:07:27;8.00;99.90
6118;DHT22;3089;48.202;11.510;2024-01-30T11:10:02;8.40;99.90
6118;DHT22;3089;48.202;11.510;2024-01-30T11:12:32;8.40;99.90
6118;DHT22;3089;48.202;11.510;2024-01-30T11:15:05;8.60;99.90
6118;DHT22;3089;48.202;11.510;2024-01-30T11:17:44;8.50;99.90
6118;DHT22;3089;48.202;11.510;2024-01-30T11:20:15;8.90;99.90
6118;DHT22;3089;48.202;11.510;2024-01-30T11:22:45;8.50;99.90
6118;DHT22;3089;48.202;11.510;2024-01-30T11:25:16;8.80;99.90
6118;DHT22;3089;48.202;11.510;2024-01-30T11:27:45;8.90;99.90
6118;DHT22;3089;48.202;11.510;2024-01-30T11:30:21;8.90;99.90
6118;DHT22;3089;48.202;11.510;2024-01-30T11:33:00;9.10;99.90
6118;DHT22;3089;48.202;11.510;2024-01-30T11:35:31;9.10;99.90
6118;DHT22;3089;48.202;11.510;2024-01-30T11:38:00;9.20;99.90
6118;DHT22;3089;48.202;11.510;2024-01-30T11:40:30;9.40;99.90
6118;DHT22;3089;48.202;11.510;2024-01-30T11:43:00;9.30;99.90
6118;DHT22;3089;48.202;11.510;2024-01-30T11:45:29;8.90;99.90
6118;DHT22;3089;48.202;11.510;2024-01-30T11:47:58;9.00;99.90
6118;DHT22;3089;48.202;11.510;2024-01-30T11:50:28;8.70;99.90
6118;DHT22;3089;48.202;11.510;2024-01-30T11:52:56;9.10;99.90
6118;DHT22;3089;48.202;11.510;2024-01-30T11:55:25;9.40;99.90
6118;DHT22;3089;48.202;11.510;2024-01-30T11:58:00;9.50;99.90
6118;DHT22;3089;48.202;11.510;2024-01-30T12:00:29;9.40;99.90
6118;DHT22;3089;48.202;11.510;2024-01-30T12:02:58;9.20;99.90
6118;DHT22;3089;48.202;11.510;2024-01-30T12:05:28;9.30;99.90
6118;DHT22;3089;48.202;11.510;2024-01-30T12:07:56;9.30;99.90
6118;DHT22;3089;48.202;11.510;2024-01-30T12:10:27;9.20;99.90
6118;DHT22;3089;48.202;11.510;2024-01-30T12:12:56;9.70;99.90
6118;DHT22;3089;48.202;11.510;2024-01-30T12:15:26;9.90;99.90
6118;DHT22;3089;48.202;11.510;2024-01-30T12:18:04;9.80;99.90
6118;DHT22;3089;48.202;11.510;2024-01-30T12:20:32;9.80;99.90
6118;DHT22;3089;48.202;11.510;2024-01-30T12:23:00;9.60;99.90
6118;DHT22;3089;48.202;11.510;2024-01-30T12:25:29;9.60;99.90
6118;DHT22;3089;48.202;11.510;2024-01-30T12:27:57;9.70;99.90
6118;DHT22;3089;48.202;11.510;2024-01-30T12:30:27;9.90;99.90
6118;DHT22;3089;48.202;11.510;2024-01-30T12:32:56;10.10;99.90
6118;DHT22;3089;48.202;11.510;2024-01-30T12:35:25;10.00;99.90
6118;DHT22;3089;48.202;11.510;2024-01-30T12:37:56;9.70;99.90
6118;DHT22;3089;48.202;11.510;2024-01-30T12:40:25;9.60;99.90
6118;DHT22;3089;48.202;11.510;2024-01-30T12:42:53;9.90;99.90
6118;DHT22;3089;48.202;11.510;2024-01-30T12:45:21;9.90;99.90
6118;DHT22;3089;48.202;11.510;2024-01-30T12:47:51;9.80;99.90
6118;DHT22;3089;48.202;11.510;2024-01-30T12:50:20;9.70;99.90
6118;DHT22;3089;48.202;11.510;2024-01-30T12:52:48;9.60;99.90
6118;DHT22;3089;48.202;11.510;2024-01-30T12:55:16;9.50;99.90
6118;DHT22;3089;48.202;11.510;2024-01-30T12:57:45;9.70;99.90
6118;DHT22;3089;48.202;11.510;2024-01-30T13:00:13;9.80;99.90
6118;DHT22;3089;48.202;11.510;2024-01-30T13:02:44;9.90;99.90
6118;DHT22;3089;48.202;11.510;2024-01-30T13:05:13;10.00;99.90
6118;DHT22;3089;48.202;11.510;2024-01-30T13:07:42;9.90;99.90
6118;DHT22;3089;48.202;11.510;2024-01-30T13:10:10;10.00;99.90
6118;DHT22;3089;48.202;11.510;2024-01-30T13:12:38;10.10;99.90
6118;DHT22;3089;48.202;11.510;2024-01-30T13:15:06;10.10;99.90
6118;DHT22;3089;48.202;11.510;2024-01-30T13:17:35;10.00;99.90
6118;DHT22;3089;48.202;11.510;2024-01-30T13:20:04;10.10;99.90
6118;DHT22;3089;48.202;11.510;2024-01-30T13:22:39;10.00;99.90
6118;DHT22;3089;48.202;11.510;2024-01-30T13:25:07;10.00;99.90
6118;DHT22;3089;48.202;11.510;2024-01-30T13:27:36;10.00;99.90
6118;DHT22;3089;48.202;11.510;2024-01-30T13:30:07;10.20;99.90
6118;DHT22;3089;48.202;11.510;2024-01-30T13:32:36;10.10;99.90
6118;DHT22;3089;48.202;11.510;2024-01-30T13:35:04;9.90;99.90
6118;DHT22;3089;48.202;11.510;2024-01-30T13:37:33;10.10;99.90
6118;DHT22;3089;48.202;11.510;2024-01-30T13:40:05;10.00;99.90
6118;DHT22;3089;48.202;11.510;2024-01-30T13:42:39;10.00;99.90
6118;DHT22;3089;48.202;11.510;2024-01-30T13:45:07;10.10;99.90
6118;DHT22;3089;48.202;11.510;2024-01-30T13:47:37;10.30;99.90
6118;DHT22;3089;48.202;11.510;2024-01-30T13:50:06;10.20;99.90
6118;DHT22;3089;48.202;11.510;2024-01-30T13:52:35;10.30;99.90
6118;DHT22;3089;48.202;11.510;2024-01-30T13:55:12;10.40;99.90
6118;DHT22;3089;48.202;11.510;2024-01-30T13:57:40;10.50;99.90
6118;DHT22;3089;48.202;11.510;2024-01-30T14:00:09;10.60;99.90
6118;DHT22;3089;48.202;11.510;2024-01-30T14:02:38;10.60;99.90
6118;DHT22;3089;48.202;11.510;2024-01-30T14:05:07;10.60;99.90
6118;DHT22;3089;48.202;11.510;2024-01-30T14:07:35;10.50;99.90
6118;DHT22;3089;48.202;11.510;2024-01-30T14:10:04;10.50;99.90
6118;DHT22;3089;48.202;11.510;2024-01-30T14:12:39;10.50;99.90
6118;DHT22;3089;48.202;11.510;2024-01-30T14:15:08;10.50;99.90
6118;DHT22;3089;48.202;11.510;2024-01-30T14:17:53;10.40;99.90
6118;DHT22;3089;48.202;11.510;2024-01-30T14:20:21;10.50;99.90
6118;DHT22;3089;48.202;11.510;2024-01-30T14:22:50;10.40;99.90
6118;DHT22;3089;48.202;11.510;2024-01-30T14:25:18;10.40;99.90
6118;DHT22;3089;48.202;11.510;2024-01-30T14:27:48;10.40;99.90
6118;DHT22;3089;48.202;11.510;2024-01-30T14:30:17;10.40;99.90
6118;DHT22;3089;48.202;11.510;2024-01-30T14:32:45;10.40;99.90
6118;DHT22;3089;48.202;11.510;2024-01-30T14:35:13;10.40;99.90
6118;DHT22;3089;48.202;11.510;2024-01-30T14:37:41;10.30;99.90
6118;DHT22;3089;48.202;11.510;2024-01-30T14:40:10;10.40;99.90
6118;DHT22;3089;48.202;11.510;2024-01-30T14:42:38;10.40;99.90
6118;DHT22;3089;48.202;11.510;2024-01-30T14:45:07;10.30;99.90
6118;DHT22;3089;48.202;11.510;2024-01-30T14:47:36;10.30;99.90
6118;DHT22;3089;48.202;11.510;2024-01-30T14:50:05;10.20;99.90
6118;DHT22;3089;48.202;11.510;2024-01-30T14:52:35;10.20;99.90
6118;DHT22;3089;48.202;11.510;2024-01-30T14:55:04;10.20;99.90
6118;DHT22;3089;48.202;11.510;2024-01-30T14:57:33;10.20;99.90
6118;DHT22;3089;48.202;11.510;2024-01-30T15:00:02;10.20;99.90
6118;DHT22;3089;48.202;11.510;2024-01-30T15:02:32;10.10;99.90
6118;DHT22;3089;48.202;11.510;2024-01-30T15:05:00;10.20;99.90
6118;DHT22;3089;48.202;11.510;2024-01-30T15:07:28;10.10;99.90
6118;DHT22;3089;48.202;11.510;2024-01-30T15:10:07;10.10;99.90
6118;DHT22;3089;48.202;11.510;2024-01-30T15:12:35;10.10;99.90
6118;DHT22;3089;48.202;11.510;2024-01-30T15:15:04;10.10;99.90
6118;DHT22;3089;48.202;11.510;2024-01-30T15:17:34;10.10;99.90
6118;DHT22;3089;48.202;11.510;2024-01-30T15:20:02;10.00;99.90
6118;DHT22;3089;48.202;11.510;2024-01-30T15:22:31;10.00;99.90
6118;DHT22;3089;48.202;11.510;2024-01-30T15:24:59;10.10;99.90
6118;DHT22;3089;48.202;11.510;2024-01-30T15:27:27;10.00;99.90
6118;DHT22;3089;48.202;11.510;2024-01-30T15:29:57;10.10;99.90
6118;DHT22;3089;48.202;11.510;2024-01-30T15:32:24;10.10;99.90
6118;DHT22;3089;48.202;11.510;2024-01-30T15:34:54;10.00;99.90
6118;DHT22;3089;48.202;11.510;2024-01-30T15:37:23;10.10;99.90
6118;DHT22;3089;48.202;11.510;2024-01-30T15:39:51;10.10;99.90
6118;DHT22;3089;48.202;11.510;2024-01-30T15:42:19;10.10;99.90
6118;DHT22;3089;48.202;11.510;2024-01-30T15:44:48;10.10;99.90
6118;DHT22;3089;48.202;11.510;2024-01-30T15:47:17;10.00;99.90
6118;DHT22;3089;48.202;11.510;2024-01-30T15:49:45;10.00;99.90
6118;DHT22;3089;48.202;11.510;2024-01-30T15:52:15;10.00;99.90
6118;DHT22;3089;48.202;11.510;2024-01-30T15:54:44;10.00;99.90
6118;DHT22;3089;48.202;11.510;2024-01-30T15:57:12;10.00;99.90
6118;DHT22;3089;48.202;11.510;2024-01-30T15:59:40;10.00;99.90
6118;DHT22;3089;48.202;11.510;2024-01-30T16:02:08;9.90;99.90
6118;DHT22;3089;48.202;11.510;2024-01-30T16:04:36;9.90;99.90
6118;DHT22;3089;48.202;11.510;2024-01-30T16:07:04;9.90;99.90
6118;DHT22;3089;48.202;11.510;2024-01-30T16:09:33;9.80;99.90